CW2303 Weather Reports


time (UTC)temp
C
wind
direction
speed
KPH
gust
KPH
rain 1hr
cm
rain 24hr
cm
rain mn
cm
humidity
%
barometer
mb
20220813153031 26 199 3.2 9.7 0.00 0.00 0.00 64 1021.5
20220813152507 26 163 1.6 6.4 0.00 0.00 0.00 63 1021.5
20220813152049 25 165 1.6 6.4 0.00 0.00 0.00 63 1021.5
20220813151510 25 188 3.2 9.7 0.00 0.00 0.00 64 1021.5
20220813151008 25 181 1.6 9.7 0.00 0.00 0.00 63 1021.5
20220813150507 25 160 1.6 8.0 0.00 0.00 0.00 63 1021.5
20220813150031 25 168 3.2 11.3 0.00 0.00 0.00 64 1021.6
20220813145528 25 175 3.2 11.3 0.00 0.00 0.00 64 1021.6
20220813145028 24 177 3.2 9.7 0.00 0.00 0.00 64 1021.6
20220813144532 24 169 4.8 16.1 0.00 0.00 0.00 64 1021.6
20220813144007 23 151 4.8 16.1 0.00 0.00 0.00 64 1021.5
20220813143529 23 145 6.4 17.7 0.00 0.00 0.00 65 1021.6
20220813143010 23 149 4.8 17.7 0.00 0.00 0.00 64 1021.5
20220813142507 23 164 3.2 11.3 0.00 0.00 0.00 64 1021.5
20220813142049 23 164 3.2 11.3 0.00 0.00 0.00 65 1021.5
20220813141510 23 156 3.2 9.7 0.00 0.00 0.00 64 1021.6
20220813141008 23 154 3.2 11.3 0.00 0.00 0.00 65 1021.6
20220813140507 22 152 3.2 11.3 0.00 0.00 0.00 64 1021.6
20220813140031 22 151 4.8 12.9 0.00 0.00 0.00 63 1021.6
20220813135507 22 150 3.2 12.9 0.00 0.00 0.00 63 1021.6
20220813135028 22 161 1.6 9.7 0.00 0.00 0.00 62 1021.4
20220813134510 22 172 1.6 9.7 0.00 0.00 0.00 59 1021.4
20220813134050 21 167 1.6 8.0 0.00 0.00 0.00 59 1021.3
20220813133549 21 168 1.6 6.4 0.00 0.00 0.00 53 1021.4
20220813133031 21 177 1.6 6.4 0.00 0.00 0.00 42 1021.3
20220813132528 21 175 0.0 6.4 0.00 0.00 0.00 43 1021.3
20220813132029 21 153 1.6 6.4 0.00 0.00 0.00 36 1021.3
20220813131510 21 147 3.2 11.3 0.00 0.00 0.00 40 1021.3
20220813131028 21 150 3.2 11.3 0.00 0.00 0.00 37 1021.3
20220813130528 20 150 3.2 9.7 0.00 0.00 0.00 25 1021.1
20220813130010 20 147 1.6 8.0 0.00 0.00 0.00 25 1021.1
20220813125508 20 143 1.6 9.7 0.00 0.00 0.00 8 1021.0
20220813125028 20 142 1.6 9.7 0.00 0.00 0.00 5 1021.0
20220813124528 20 146 1.6 8.0 0.00 0.00 0.00 1 1021.0
20220813124007 20 144 1.6 6.4 0.00 0.00 0.00 1 1020.9
20220813123528 20 145 1.6 6.4 0.00 0.00 0.00 1 1020.9
20220813123011 20 145 1.6 8.0 0.00 0.00 0.00 1 1020.9
20220813122530 20 144 1.6 8.0 0.00 0.00 0.00 1 1020.9
20220813122007 20 144 1.6 6.4 0.00 0.00 0.00 1 1020.8
20220813121528 20 143 1.6 8.0 0.00 0.00 0.00 1 1020.7
20220813121007 20 143 1.6 8.0 0.00 0.00 0.00 1 1020.6
20220813120508 20 141 1.6 8.0 0.00 0.00 0.00 1 1020.5
20220813120050 20 142 1.6 6.4 0.00 0.00 0.00 1 1020.5
20220813115508 20 142 1.6 4.8 0.00 0.00 0.00 1 1020.4
20220813115007 20 139 0.0 4.8 0.00 0.00 0.00 1 1020.4
20220813114549 20 140 0.0 4.8 0.00 0.00 0.00 1 1020.4
20220813114028 20 148 0.0 6.4 0.00 0.00 0.00 1 1020.3
20220813113549 20 148 1.6 8.0 0.00 0.00 0.00 1 1020.2
20220813113028 20 145 1.6 8.0 0.00 0.00 0.00 1 1020.2
20220813112508 20 144 1.6 6.4 0.00 0.00 0.00 1 1020.2
20220813112029 20 143 1.6 6.4 0.00 0.00 0.00 1 1020.2
20220813111507 20 142 1.6 6.4 0.00 0.00 0.00 1 1020.2
20220813111049 20 142 1.6 8.0 0.00 0.00 0.00 1 1020.2
20220813110528 20 142 3.2 9.7 0.00 0.00 0.00 1 1020.1
20220813110029 20 142 1.6 9.7 0.00 0.00 0.00 1 1020.1
20220813105507 20 143 1.6 9.7 0.00 0.00 0.00 1 1020.0
20220813105049 20 145 1.6 9.7 0.00 0.00 0.00 1 1019.9
20220813104507 20 146 1.6 9.7 0.00 0.00 0.00 1 1019.9
20220813104049 20 146 3.2 8.0 0.00 0.00 0.00 1 1019.9
20220813103507 20 148 3.2 11.3 0.00 0.00 0.00 1 1019.9
20220813103050 20 146 3.2 11.3 0.00 0.00 0.00 1 1019.9
20220813102507 20 146 3.2 9.7 0.00 0.00 0.00 1 1019.8
20220813102029 20 145 3.2 9.7 0.00 0.00 0.00 1 1019.7
20220813101528 20 144 3.2 9.7 0.00 0.00 0.00 1 1019.8
20220813101007 20 146 3.2 9.7 0.00 0.00 0.00 1 1019.8
20220813100507 20 146 3.2 9.7 0.00 0.00 0.00 1 1019.8
20220813100008 20 145 3.2 9.7 0.00 0.00 0.00 1 1019.9
20220813095507 20 142 3.2 8.0 0.00 0.00 0.00 1 1019.8
20220813095049 20 142 1.6 8.0 0.00 0.00 0.00 1 1019.9
20220813094507 20 143 1.6 8.0 0.00 0.00 0.00 1 1019.9
20220813094028 20 144 1.6 8.0 0.00 0.00 0.00 1 1019.9
20220813093511 20 145 1.6 6.4 0.00 0.00 0.00 1 1019.9
20220813093008 21 142 1.6 8.0 0.00 0.00 0.00 1 1020.0
20220813092549 21 143 1.6 8.0 0.00 0.00 0.00 1 1020.0
20220813092031 21 144 1.6 8.0 0.00 0.00 0.00 1 1020.0
20220813091508 21 144 1.6 8.0 0.00 0.00 0.00 1 1019.9
20220813091007 21 146 1.6 8.0 0.00 0.00 0.00 1 1020.0
20220813090532 21 142 1.6 6.4 0.00 0.00 0.00 1 1020.0
20220813090008 21 144 1.6 6.4 0.00 0.00 0.00 1 1020.0
20220813085507 21 145 1.6 4.8 0.00 0.00 0.00 1 1020.0
20220813085031 21 144 1.6 8.0 0.00 0.00 0.00 1 1020.0
20220813084528 21 145 1.6 8.0 0.00 0.00 0.00 1 1020.0
20220813084007 21 144 1.6 6.4 0.00 0.00 0.00 1 1020.0
20220813083510 21 144 1.6 11.3 0.00 0.00 0.00 1 1019.9
20220813083007 21 146 1.6 11.3 0.00 0.00 0.00 1 1019.8
20220813082528 21 144 1.6 8.0 0.00 0.00 0.00 1 1019.7
20220813082011 21 141 3.2 9.7 0.00 0.00 0.00 1 1019.7
20220813081549 21 142 3.2 9.7 0.00 0.00 0.00 1 1019.6
20220813081008 21 143 1.6 8.0 0.00 0.00 0.00 1 1019.7
20220813080509 21 146 3.2 9.7 0.00 0.00 0.00 1 1019.7
20220813080049 21 149 3.2 9.7 0.00 0.00 0.00 1 1019.7
20220813075508 21 147 3.2 9.7 0.00 0.00 0.00 1 1019.9
20220813075031 21 141 1.6 9.7 0.00 0.00 0.00 1 1019.9
20220813074507 21 140 0.0 4.8 0.00 0.00 0.00 1 1020.0
20220813074007 21 147 1.6 6.4 0.00 0.00 0.00 1 1020.1
20220813073552 21 145 1.6 6.4 0.00 0.00 0.00 1 1020.1
20220813073028 21 144 1.6 6.4 0.00 0.00 0.00 1 1020.2
20220813072508 21 147 1.6 6.4 0.00 0.00 0.00 1 1020.2
20220813072052 21 145 1.6 4.8 0.00 0.00 0.00 1 1020.2
20220813071507 22 141 1.6 6.4 0.00 0.00 0.00 1 1020.1
20220813071007 22 140 1.6 6.4 0.00 0.00 0.00 1 1020.0
20220813070509 22 140 1.6 8.0 0.00 0.00 0.00 1 1020.0
20220813070007 22 141 1.6 8.0 0.00 0.00 0.00 1 1020.2
20220813065507 22 145 1.6 6.4 0.00 0.00 0.00 1 1020.2
20220813065052 22 144 1.6 6.4 0.00 0.00 0.00 1 1020.2
20220813064507 22 146 1.6 4.8 0.00 0.00 0.00 1 1020.2
20220813064049 22 147 1.6 4.8 0.00 0.00 0.00 1 1020.1
20220813063510 22 136 0.0 4.8 0.00 0.00 0.00 1 1020.2
20220813063028 22 132 0.0 4.8 0.00 0.00 0.00 1 1020.3
20220813062507 22 134 0.0 3.2 0.00 0.00 0.00 1 1020.3
20220813062030 22 140 0.0 3.2 0.00 0.00 0.00 1 1020.4
20220813061528 22 128 0.0 3.2 0.00 0.00 0.00 1 1020.5
20220813061007 22 143 0.0 3.2 0.00 0.00 0.00 1 1020.4
20220813060510 22 138 0.0 3.2 0.00 0.00 0.00 1 1020.3
20220813060029 22 131 0.0 3.2 0.00 0.00 0.00 1 1020.5
20220813055507 22 135 1.6 6.4 0.00 0.00 0.00 1 1020.5
20220813055009 22 141 1.6 6.4 0.00 0.00 0.00 1 1020.5
20220813054507 22 141 1.6 6.4 0.00 0.00 0.00 1 1020.4
20220813054029 22 140 0.0 4.8 0.00 0.00 0.00 1 1020.4
20220813053531 22 147 0.0 1.6 0.00 0.00 0.00 1 1020.5
20220813053007 22 137 0.0 1.6 0.00 0.00 0.00 1 1020.5
20220813052528 22 136 0.0 1.6 0.00 0.00 0.00 1 1020.4
20220813052010 22 132 0.0 1.6 0.00 0.00 0.00 1 1020.3
20220813051507 22 116 0.0 1.6 0.00 0.00 0.00 1 1020.3
20220813051029 22 120 0.0 1.6 0.00 0.00 0.00 1 1020.3
20220813050552 22 123 0.0 1.6 0.00 0.00 0.00 1 1020.3
20220813050029 22 122 0.0 1.6 0.00 0.00 0.00 1 1020.3
20220813045550 22 120 0.0 1.6 0.00 0.00 0.00 1 1020.3
20220813045051 22 0 0.0 0.0 0.00 0.00 0.00 1 1020.4
20220813044507 22 0 0.0 0.0 0.00 0.00 0.00 1 1020.4
20220813044007 22 0 0.0 0.0 0.00 0.00 0.00 1 1020.5
20220813043531 22 0 0.0 0.0 0.00 0.00 0.00 1 1020.5
20220813043049 22 0 0.0 0.0 0.00 0.00 0.00 1 1020.4
20220813042507 22 0 0.0 0.0 0.00 0.00 0.00 1 1020.4
20220813042007 22 0 0.0 0.0 0.00 0.00 0.00 1 1020.4
20220813041528 23 0 0.0 0.0 0.00 0.00 0.00 1 1020.4
20220813041007 23 0 0.0 0.0 0.00 0.00 0.00 4 1020.4
20220813040510 23 0 0.0 0.0 0.00 0.00 0.00 10 1020.6
20220813040007 23 0 0.0 0.0 0.00 0.00 0.00 11 1020.6
20220813035507 23 0 0.0 0.0 0.00 0.00 0.00 11 1020.6
20220813035008 23 0 0.0 0.0 0.00 0.00 0.00 13 1020.5
20220813034550 23 0 0.0 0.0 0.00 0.00 0.00 17 1020.5
20220813034007 23 132 0.0 1.6 0.00 0.00 0.00 22 1020.5
20220813033507 23 132 0.0 1.6 0.00 0.00 0.00 23 1020.5
20220813033029 23 134 0.0 1.6 0.00 0.00 0.00 25 1020.5
20220813032508 23 137 0.0 1.6 0.00 0.00 0.00 24 1020.4
20220813032029 23 136 0.0 1.6 0.00 0.00 0.00 29 1020.5
20220813031507 23 136 0.0 1.6 0.00 0.00 0.00 30 1020.5
20220813031007 23 0 0.0 1.6 0.00 0.00 0.00 31 1020.5
20220813030528 23 0 0.0 1.6 0.00 0.00 0.00 34 1020.6
20220813030028 23 0 0.0 1.6 0.00 0.00 0.00 36 1020.5
20220813025508 23 130 0.0 1.6 0.00 0.00 0.00 34 1020.5
20220813025050 23 130 0.0 1.6 0.00 0.00 0.00 35 1020.5
20220813024528 23 107 0.0 1.6 0.00 0.00 0.00 35 1020.5
20220813024049 23 107 0.0 1.6 0.00 0.00 0.00 32 1020.4
20220813023507 23 0 0.0 0.0 0.00 0.00 0.00 34 1020.4
20220813023049 23 0 0.0 0.0 0.00 0.00 0.00 37 1020.4
20220813022508 23 0 0.0 0.0 0.00 0.00 0.00 40 1020.4
20220813022029 23 0 0.0 0.0 0.00 0.00 0.00 41 1020.2
20220813021507 23 0 0.0 0.0 0.00 0.00 0.00 46 1020.1
20220813021007 23 0 0.0 0.0 0.00 0.00 0.00 45 1020.1
20220813020528 23 0 0.0 0.0 0.00 0.00 0.00 47 1020.0
20220813020049 24 0 0.0 0.0 0.00 0.00 0.00 50 1020.0
20220813015529 24 0 0.0 0.0 0.00 0.00 0.00 49 1020.0
20220813015028 24 0 0.0 0.0 0.00 0.00 0.00 52 1019.9
20220813014549 24 0 0.0 0.0 0.00 0.00 0.00 51 1019.9
20220813014049 25 0 0.0 0.0 0.00 0.00 0.00 50 1019.9
20220813013507 25 0 0.0 0.0 0.00 0.00 0.00 52 1019.8
20220813013007 25 0 0.0 0.0 0.00 0.00 0.00 56 1019.7
20220813012528 25 0 0.0 0.0 0.00 0.00 0.00 57 1019.8
20220813012029 25 0 0.0 0.0 0.00 0.00 0.00 60 1019.7
20220813011528 26 0 0.0 0.0 0.00 0.00 0.00 61 1019.7
20220813011007 26 0 0.0 0.0 0.00 0.00 0.00 63 1019.7
20220813010528 26 0 0.0 0.0 0.00 0.00 0.00 63 1019.7
20220813010007 26 0 0.0 0.0 0.00 0.00 0.00 63 1019.7
20220813005507 27 0 0.0 0.0 0.00 0.00 0.00 63 1019.6
20220813005007 27 0 0.0 0.0 0.00 0.00 0.00 63 1019.6
20220813004531 27 0 0.0 0.0 0.00 0.00 0.00 63 1019.6
20220813004028 27 0 0.0 0.0 0.00 0.00 0.00 62 1019.6
20220813003507 27 126 0.0 1.6 0.00 0.00 0.00 62 1019.6
20220813003008 28 126 0.0 1.6 0.00 0.00 0.00 62 1019.6
20220813002528 28 0 0.0 0.0 0.00 0.00 0.00 62 1019.6
20220813002007 28 127 0.0 1.6 0.00 0.00 0.00 61 1019.6
20220813001508 28 130 0.0 1.6 0.00 0.00 0.00 61 1019.6
20220813001007 28 135 0.0 3.2 0.00 0.00 0.00 60 1019.7
20220813000528 29 135 0.0 3.2 0.00 0.00 0.00 59 1019.6
20220813000007 29 124 0.0 1.6 0.00 0.00 0.00 60 1019.6
20220812235507 30 0 0.0 0.0 0.00 0.00 0.00 59 1019.6
20220812235007 30 0 0.0 0.0 0.00 0.00 0.00 58 1019.7
20220812234507 30 126 0.0 3.2 0.00 0.00 0.00 58 1019.7
20220812234050 30 147 0.0 3.2 0.00 0.00 0.00 57 1019.7
20220812233528 30 141 0.0 3.2 0.00 0.00 0.00 56 1019.6
20220812233049 30 129 0.0 3.2 0.00 0.00 0.00 55 1019.6
20220812232528 31 150 0.0 3.2 0.00 0.00 0.00 56 1019.7
20220812232049 30 140 1.6 9.7 0.00 0.00 0.00 55 1019.7
20220812231549 30 141 1.6 9.7 0.00 0.00 0.00 55 1019.7
20220812231007 30 143 0.0 6.4 0.00 0.00 0.00 56 1019.7
20220812230508 30 143 0.0 8.0 0.00 0.00 0.00 56 1019.7
20220812230007 30 146 1.6 8.0 0.00 0.00 0.00 55 1019.8
20220812225550 30 150 1.6 8.0 0.00 0.00 0.00 55 1019.8
20220812225028 30 146 1.6 8.0 0.00 0.00 0.00 52 1019.9
20220812224507 30 140 1.6 8.0 0.00 0.00 0.00 54 1020.0
20220812224028 30 136 1.6 4.8 0.00 0.00 0.00 56 1020.1
20220812223507 30 132 1.6 8.0 0.00 0.00 0.00 57 1020.1
20220812223049 30 133 1.6 8.0 0.00 0.00 0.00 56 1020.1
20220812222507 31 138 3.2 11.3 0.00 0.00 0.00 54 1020.2
20220812222007 31 138 3.2 11.3 0.00 0.00 0.00 54 1020.1
20220812221507 31 140 1.6 8.0 0.00 0.00 0.00 55 1020.1
20220812221028 30 138 1.6 8.0 0.00 0.00 0.00 56 1020.2
20220812220528 31 125 1.6 8.0 0.00 0.00 0.00 56 1020.3
20220812220050 31 51 1.6 12.9 0.00 0.00 0.00 55 1020.3
20220812215508 31 122 3.2 12.9 0.00 0.00 0.00 56 1020.3
20220812215007 31 136 3.2 9.7 0.00 0.00 0.00 53 1020.3
20220812214549 31 122 1.6 9.7 0.00 0.00 0.00 53 1020.3
20220812214007 31 125 1.6 9.7 0.00 0.00 0.00 55 1020.3
20220812213506 31 143 1.6 11.3 0.00 0.00 0.00 56 1020.3
20220812213007 30 141 1.6 11.3 0.00 0.00 0.00 57 1020.3
20220812212529 30 132 1.6 6.4 0.00 0.00 0.00 58 1020.4
20220812212007 31 135 1.6 4.8 0.00 0.00 0.00 56 1020.4
20220812211507 30 133 1.6 4.8 0.00 0.00 0.00 59 1020.3
20220812211007 30 148 3.2 16.1 0.00 0.00 0.00 56 1020.4
20220812210509 31 153 3.2 16.1 0.00 0.00 0.00 54 1020.5
20220812210007 31 139 1.6 9.7 0.00 0.00 0.00 55 1020.5
20220812205508 31 135 1.6 8.0 0.00 0.00 0.00 57 1020.6
20220812205028 31 132 1.6 8.0 0.00 0.00 0.00 55 1020.5
20220812204549 31 131 1.6 4.8 0.00 0.00 0.00 58 1020.7
20220812204007 30 125 0.0 4.8 0.00 0.00 0.00 55 1020.7
20220812203551 31 111 0.0 6.4 0.00 0.00 0.00 55 1020.7
20220812203007 30 60 1.6 8.0 0.00 0.00 0.00 58 1020.7
20220812202508 30 131 1.6 9.7 0.00 0.00 0.00 58 1020.7
20220812202050 30 145 3.2 9.7 0.00 0.00 0.00 55 1020.8
20220812201507 30 154 4.8 14.5 0.00 0.00 0.00 56 1020.7
20220812201049 30 158 4.8 14.5 0.00 0.00 0.00 56 1020.7
20220812200507 30 153 3.2 12.9 0.00 0.00 0.00 56 1020.8
20220812200028 30 147 3.2 12.9 0.00 0.00 0.00 57 1020.8
20220812195507 30 141 3.2 12.9 0.00 0.00 0.00 54 1020.8
20220812195008 30 138 3.2 9.7 0.00 0.00 0.00 52 1020.9
20220812194529 30 142 1.6 9.7 0.00 0.00 0.00 55 1021.0
20220812194006 31 147 1.6 8.0 0.00 0.00 0.00 56 1021.1
20220812193507 30 140 1.6 8.0 0.00 0.00 0.00 55 1021.0
20220812193007 31 170 0.0 6.4 0.00 0.00 0.00 53 1021.1
20220812192507 30 165 0.0 6.4 0.00 0.00 0.00 52 1021.2
20220812192028 30 145 0.0 6.4 0.00 0.00 0.00 55 1021.2
20220812191548 30 137 1.6 11.3 0.00 0.00 0.00 55 1021.2
20220812191008 30 144 1.6 11.3 0.00 0.00 0.00 54 1021.2
20220812190507 30 147 0.0 6.4 0.00 0.00 0.00 53 1021.2
20220812190049 30 145 1.6 8.0 0.00 0.00 0.00 55 1021.2
20220812185528 30 147 1.6 8.0 0.00 0.00 0.00 55 1021.2
20220812185007 30 143 0.0 6.4 0.00 0.00 0.00 52 1021.3
20220812184528 30 70 0.0 11.3 0.00 0.00 0.00 55 1021.4
20220812184007 30 21 0.0 11.3 0.00 0.00 0.00 57 1021.4
20220812183507 30 56 0.0 4.8 0.00 0.00 0.00 57 1021.4
20220812183007 30 133 1.6 9.7 0.00 0.00 0.00 53 1021.4
20220812182507 30 164 1.6 9.7 0.00 0.00 0.00 56 1021.5
20220812182007 30 161 1.6 6.4 0.00 0.00 0.00 55 1021.4
20220812181527 30 153 0.0 6.4 0.00 0.00 0.00 58 1021.5
20220812181008 30 102 0.0 4.8 0.00 0.00 0.00 56 1021.5
20220812180507 30 33 0.0 4.8 0.00 0.00 0.00 54 1021.6
20220812180010 30 136 0.0 4.8 0.00 0.00 0.00 58 1021.6
20220812175528 30 64 0.0 11.3 0.00 0.00 0.00 57 1021.6
20220812175027 29 78 1.6 11.3 0.00 0.00 0.00 57 1021.6
20220812174531 29 134 1.6 8.0 0.00 0.00 0.00 57 1021.8
20220812174050 29 143 1.6 9.7 0.00 0.00 0.00 57 1021.8
20220812173507 29 152 0.0 9.7 0.00 0.00 0.00 58 1021.8
20220812173010 29 131 0.0 1.6 0.00 0.00 0.00 56 1021.9
20220812172528 28 37 0.0 3.2 0.00 0.00 0.00 57 1022.0
20220812172006 28 139 1.6 8.0 0.00 0.00 0.00 56 1022.0
20220812171531 28 146 1.6 8.0 0.00 0.00 0.00 59 1022.0
20220812171008 28 185 0.0 4.8 0.00 0.00 0.00 60 1022.0
20220812170549 28 159 1.6 6.4 0.00 0.00 0.00 61 1022.0
20220812170031 28 150 1.6 8.0 0.00 0.00 0.00 60 1022.0
20220812165528 28 150 1.6 8.0 0.00 0.00 0.00 62 1022.0
20220812165006 28 150 1.6 8.0 0.00 0.00 0.00 57 1022.1
20220812164510 27 146 0.0 8.0 0.00 0.00 0.00 59 1022.1
20220812164007 27 148 0.0 11.3 0.00 0.00 0.00 60 1022.1
20220812163508 27 153 1.6 11.3 0.00 0.00 0.00 61 1022.2
20220812163030 27 153 1.6 6.4 0.00 0.00 0.00 63 1022.3
20220812162527 27 145 0.0 6.4 0.00 0.00 0.00 63 1022.4
20220812162008 27 149 1.6 9.7 0.00 0.00 0.00 63 1022.4
20220812161531 27 145 1.6 9.7 0.00 0.00 0.00 63 1022.5
20220812161029 27 104 0.0 4.8 0.00 0.00 0.00 62 1022.5
20220812160528 27 150 0.0 4.8 0.00 0.00 0.00 63 1022.5
20220812160030 26 149 1.6 9.7 0.00 0.00 0.00 64 1022.6
20220812155507 26 156 1.6 9.7 0.00 0.00 0.00 63 1022.6
20220812155028 26 161 0.0 6.4 0.00 0.00 0.00 63 1022.6
20220812154510 26 136 1.6 6.4 0.00 0.00 0.00 61 1022.6
20220812154028 26 145 1.6 8.0 0.00 0.00 0.00 61 1022.5
20220812153507 26 149 1.6 8.0 0.00 0.00 0.00 60 1022.5